Time;durP1;ratioP1;P1;durP2;ratioP2;P2;SDS_P1;SDS_P2;PMS_P1;PMS_P2;Temp;Humidity;BMP_temperature;BMP_pressure;BME280_temperature;BME280_humidity;BME280_pressure;Samples;Min_cycle;Max_cycle;Signal;HPM_P1;HPM_P2
2021/05/05 00:01:55;;;;;;;7.73;1.83;;;;;;;;;;5036806;28;20201;-68
2021/05/05 00:04:21;;;;;;;5.53;2.10;;;;;;;;;;5028069;28;20259;-68
2021/05/05 00:06:47;;;;;;;7.50;1.80;;;;;;;;;;5041003;28;20649;-69
2021/05/05 00:09:13;;;;;;;7.00;1.70;;;;;;;;;;5030326;28;20193;-68
2021/05/05 00:11:40;;;;;;;7.33;1.50;;;;;;;;;;5036847;28;20181;-68
2021/05/05 00:14:06;;;;;;;10.40;1.93;;;;;;;;;;5031665;28;20698;-68
2021/05/05 00:16:32;;;;;;;11.17;1.67;;;;;;;;;;5040968;28;20300;-68
2021/05/05 00:18:57;;;;;;;5.73;1.50;;;;;;;;;;5034430;28;20519;-68
2021/05/05 00:21:23;;;;;;;8.30;1.57;;;;;;;;;;5035169;28;20205;-68
2021/05/05 00:23:49;;;;;;;8.23;2.53;;;;;;;;;;5038974;28;20475;-68
2021/05/05 00:26:14;;;;;;;10.43;2.17;;;;;;;;;;5039533;28;20196;-70
2021/05/05 00:28:40;;;;;;;10.20;1.50;;;;;;;;;;5037798;28;20178;-70
2021/05/05 00:31:05;;;;;;;10.30;1.70;;;;;;;;;;5033041;28;20585;-70
2021/05/05 00:33:31;;;;;;;6.40;1.70;;;;;;;;;;5038229;28;20550;-69
2021/05/05 00:35:56;;;;;;;10.43;1.70;;;;;;;;;;5035190;28;20901;-70
2021/05/05 00:38:21;;;;;;;6.90;1.60;;;;;;;;;;5037307;28;20602;-69
2021/05/05 00:40:48;;;;;;;9.17;2.20;;;;;;;;;;5039718;28;20309;-69
2021/05/05 00:43:13;;;;;;;7.33;1.83;;;;;;;;;;5039093;28;20835;-69
2021/05/05 00:45:39;;;;;;;5.77;1.97;;;;;;;;;;5030577;28;20274;-70
2021/05/05 00:48:05;;;;;;;8.37;1.90;;;;;;;;;;5040079;28;20272;-69
2021/05/05 00:50:30;;;;;;;6.13;1.50;;;;;;;;;;5037603;28;20286;-69
2021/05/05 00:52:55;;;;;;;5.03;1.27;;;;;;;;;;5028657;28;20193;-69
2021/05/05 00:55:21;;;;;;;8.60;1.77;;;;;;;;;;5038886;28;20182;-69
2021/05/05 00:57:48;;;;;;;9.17;2.00;;;;;;;;;;5030975;28;20220;-69
2021/05/05 01:00:17;;;;;;;10.10;2.07;;;;;;;;;;5033798;28;20213;-69
2021/05/05 01:02:42;;;;;;;4.53;1.73;;;;;;;;;;5032042;28;20212;-69
2021/05/05 01:05:09;;;;;;;6.53;1.90;;;;;;;;;;5043066;28;20188;-70
2021/05/05 01:07:35;;;;;;;8.07;1.77;;;;;;;;;;5033674;28;20201;-69
2021/05/05 01:10:01;;;;;;;10.57;1.80;;;;;;;;;;5039070;28;20210;-69
2021/05/05 01:12:27;;;;;;;17.43;2.43;;;;;;;;;;5031521;28;20190;-69
2021/05/05 01:14:52;;;;;;;10.80;2.50;;;;;;;;;;5038956;28;20592;-69
2021/05/05 01:17:18;;;;;;;10.43;1.80;;;;;;;;;;5030793;28;20194;-69
2021/05/05 01:19:44;;;;;;;10.80;2.03;;;;;;;;;;5040883;28;20217;-69
2021/05/05 01:22:09;;;;;;;10.40;1.87;;;;;;;;;;5040426;28;20600;-70
2021/05/05 01:24:35;;;;;;;8.97;1.80;;;;;;;;;;5045693;28;20223;-69
2021/05/05 01:27:03;;;;;;;7.50;1.60;;;;;;;;;;5049577;28;20201;-69
2021/05/05 01:29:28;;;;;;;9.40;1.93;;;;;;;;;;5032494;28;20515;-69
2021/05/05 01:31:54;;;;;;;8.13;1.90;;;;;;;;;;5046913;28;20269;-69
2021/05/05 01:34:19;;;;;;;4.97;1.40;;;;;;;;;;5035014;28;20489;-69
2021/05/05 01:36:44;;;;;;;5.00;1.30;;;;;;;;;;5046030;28;20280;-69
2021/05/05 01:39:15;;;;;;;7.60;1.43;;;;;;;;;;5030390;28;20182;-69
2021/05/05 01:41:41;;;;;;;11.83;2.13;;;;;;;;;;5044632;28;20232;-69
2021/05/05 01:44:07;;;;;;;4.63;1.30;;;;;;;;;;5038011;28;20173;-69
2021/05/05 01:46:32;;;;;;;6.40;1.30;;;;;;;;;;5046694;28;20845;-69
2021/05/05 01:48:57;;;;;;;8.00;1.60;;;;;;;;;;5037201;28;20676;-69
2021/05/05 01:51:24;;;;;;;10.63;1.73;;;;;;;;;;5047434;28;20205;-69
2021/05/05 01:53:49;;;;;;;4.43;1.20;;;;;;;;;;5036503;28;20440;-69
2021/05/05 01:56:14;;;;;;;7.07;1.23;;;;;;;;;;5049390;28;20228;-69
2021/05/05 01:58:40;;;;;;;6.63;1.70;;;;;;;;;;5040612;28;20186;-70
2021/05/05 02:01:07;;;;;;;6.50;1.63;;;;;;;;;;5036409;28;20224;-70
2021/05/05 02:03:33;;;;;;;10.43;1.77;;;;;;;;;;5044614;28;20600;-70
2021/05/05 02:05:58;;;;;;;11.93;1.63;;;;;;;;;;5038938;28;20212;-70
2021/05/05 02:08:23;;;;;;;9.97;1.70;;;;;;;;;;5043107;28;20173;-69
2021/05/05 02:10:49;;;;;;;9.30;1.70;;;;;;;;;;5038550;28;20589;-69
2021/05/05 02:13:14;;;;;;;14.00;1.93;;;;;;;;;;5036511;28;20189;-69
2021/05/05 02:15:41;;;;;;;11.37;1.80;;;;;;;;;;5038325;28;20196;-69
2021/05/05 02:18:10;;;;;;;10.23;2.07;;;;;;;;;;5041423;28;20190;-69
2021/05/05 02:20:35;;;;;;;18.17;2.10;;;;;;;;;;5029079;28;20270;-69
2021/05/05 02:23:00;;;;;;;8.70;1.87;;;;;;;;;;5040136;28;20173;-69
2021/05/05 02:25:26;;;;;;;13.60;2.07;;;;;;;;;;5049806;28;20271;-69
2021/05/05 02:27:52;;;;;;;11.13;1.93;;;;;;;;;;5035615;28;20177;-69
2021/05/05 02:30:18;;;;;;;13.63;2.57;;;;;;;;;;5041707;28;20171;-70
2021/05/05 02:32:45;;;;;;;15.07;2.20;;;;;;;;;;5032677;28;20706;-69
2021/05/05 02:35:11;;;;;;;7.93;2.13;;;;;;;;;;5039707;28;20192;-69
2021/05/05 02:37:37;;;;;;;10.97;2.00;;;;;;;;;;5038058;28;20185;-69
2021/05/05 02:40:05;;;;;;;13.13;2.50;;;;;;;;;;5035979;28;20778;-69
2021/05/05 02:42:30;;;;;;;12.67;2.23;;;;;;;;;;5031775;28;20198;-69
2021/05/05 02:44:56;;;;;;;12.80;2.07;;;;;;;;;;5041843;28;20279;-69
2021/05/05 02:47:21;;;;;;;12.43;2.40;;;;;;;;;;5033787;28;20185;-69
2021/05/05 02:49:47;;;;;;;12.00;2.33;;;;;;;;;;5042298;28;20178;-69
2021/05/05 02:52:13;;;;;;;8.30;2.10;;;;;;;;;;5033560;28;20192;-70
2021/05/05 02:54:38;;;;;;;17.33;3.07;;;;;;;;;;5044942;28;20186;-69
2021/05/05 02:57:04;;;;;;;12.00;2.10;;;;;;;;;;5033293;28;20220;-69
2021/05/05 02:59:29;;;;;;;16.40;3.17;;;;;;;;;;5044860;28;20204;-69
2021/05/05 03:01:56;;;;;;;13.07;3.30;;;;;;;;;;5038983;28;20237;-68
2021/05/05 03:04:23;;;;;;;16.10;2.33;;;;;;;;;;5034663;28;20186;-69
2021/05/05 03:06:49;;;;;;;9.30;2.30;;;;;;;;;;5041441;28;20205;-70
2021/05/05 03:09:17;;;;;;;10.97;2.63;;;;;;;;;;5038094;28;20190;-69
2021/05/05 03:11:43;;;;;;;14.20;2.40;;;;;;;;;;5040006;28;20190;-69
2021/05/05 03:14:09;;;;;;;13.23;2.33;;;;;;;;;;5032170;28;20192;-69
2021/05/05 03:16:35;;;;;;;12.30;2.47;;;;;;;;;;5041500;28;20177;-69
2021/05/05 03:19:00;;;;;;;14.47;2.90;;;;;;;;;;5035886;28;20209;-69
2021/05/05 03:21:25;;;;;;;14.53;3.23;;;;;;;;;;5039421;28;20219;-69
2021/05/05 03:23:51;;;;;;;11.13;2.60;;;;;;;;;;5035356;28;20221;-69
2021/05/05 03:26:16;;;;;;;15.47;2.90;;;;;;;;;;5044196;28;20197;-69
2021/05/05 03:28:41;;;;;;;18.00;3.10;;;;;;;;;;5031330;28;20182;-69
2021/05/05 03:31:07;;;;;;;18.53;3.40;;;;;;;;;;5046670;28;20181;-69
2021/05/05 03:33:32;;;;;;;15.00;2.70;;;;;;;;;;5041889;28;20975;-69
2021/05/05 03:35:58;;;;;;;18.07;2.60;;;;;;;;;;5038450;28;20192;-69
2021/05/05 03:38:24;;;;;;;14.03;2.53;;;;;;;;;;5039430;28;20182;-69
2021/05/05 03:40:49;;;;;;;12.90;2.67;;;;;;;;;;5039133;28;20230;-69
2021/05/05 03:43:15;;;;;;;17.00;3.13;;;;;;;;;;5036166;28;20182;-69
2021/05/05 03:45:40;;;;;;;12.00;2.80;;;;;;;;;;5029568;28;20193;-69
2021/05/05 03:48:06;;;;;;;15.03;3.23;;;;;;;;;;5033294;28;20581;-69
2021/05/05 03:50:32;;;;;;;13.50;2.77;;;;;;;;;;5025899;28;20645;-69
2021/05/05 03:52:58;;;;;;;14.97;2.70;;;;;;;;;;5040171;28;20182;-69
2021/05/05 03:55:23;;;;;;;15.00;2.70;;;;;;;;;;5036192;28;20207;-69
2021/05/05 03:57:48;;;;;;;15.10;2.77;;;;;;;;;;5038201;28;20311;-70
2021/05/05 04:00:14;;;;;;;16.13;2.77;;;;;;;;;;5032869;28;20212;-70
2021/05/05 04:02:40;;;;;;;17.33;2.60;;;;;;;;;;5034159;28;20294;-70
2021/05/05 04:05:07;;;;;;;14.23;2.63;;;;;;;;;;5038201;28;20186;-70
2021/05/05 04:07:32;;;;;;;15.70;3.23;;;;;;;;;;5032366;28;20240;-69
2021/05/05 04:09:57;;;;;;;11.57;2.93;;;;;;;;;;5038184;28;20193;-69
2021/05/05 04:12:24;;;;;;;16.70;3.20;;;;;;;;;;5030972;28;20331;-69
2021/05/05 04:14:50;;;;;;;12.63;2.53;;;;;;;;;;5045014;28;20185;-69
2021/05/05 04:17:15;;;;;;;11.00;2.30;;;;;;;;;;5031185;28;20199;-70
2021/05/05 04:19:40;;;;;;;13.73;3.57;;;;;;;;;;5035971;28;20212;-69
2021/05/05 04:22:06;;;;;;;17.97;2.90;;;;;;;;;;5026327;28;20562;-70
2021/05/05 04:24:31;;;;;;;19.03;3.77;;;;;;;;;;5040070;28;20184;-70
2021/05/05 04:26:57;;;;;;;19.90;3.00;;;;;;;;;;5029376;28;20196;-70
2021/05/05 04:29:23;;;;;;;17.47;2.93;;;;;;;;;;5036631;28;20293;-70
2021/05/05 04:31:51;;;;;;;17.40;2.70;;;;;;;;;;5036024;28;20226;-69
2021/05/05 04:34:16;;;;;;;13.80;2.80;;;;;;;;;;5035640;28;20185;-69
2021/05/05 04:36:42;;;;;;;14.43;2.43;;;;;;;;;;5040544;28;20197;-69
2021/05/05 04:39:07;;;;;;;17.63;3.63;;;;;;;;;;5037850;28;20236;-69
2021/05/05 04:41:33;;;;;;;18.03;3.10;;;;;;;;;;5039928;28;20226;-69
2021/05/05 04:43:58;;;;;;;15.07;2.87;;;;;;;;;;5033045;28;20196;-70
2021/05/05 04:46:24;;;;;;;16.17;2.60;;;;;;;;;;5040379;28;20185;-69
2021/05/05 04:48:49;;;;;;;18.43;3.20;;;;;;;;;;5038768;28;20563;-69
2021/05/05 04:51:14;;;;;;;15.53;2.80;;;;;;;;;;5039549;28;20185;-69
2021/05/05 04:53:40;;;;;;;13.50;2.67;;;;;;;;;;5036138;28;20541;-69
2021/05/05 04:56:06;;;;;;;14.90;2.90;;;;;;;;;;5040388;28;20189;-69
2021/05/05 04:58:31;;;;;;;17.27;2.67;;;;;;;;;;5037696;28;20200;-69
2021/05/05 05:00:57;;;;;;;17.27;3.40;;;;;;;;;;5043512;28;20285;-69
2021/05/05 05:03:22;;;;;;;17.60;2.40;;;;;;;;;;5044304;28;20216;-69
2021/05/05 05:05:47;;;;;;;15.53;2.83;;;;;;;;;;5034357;28;20186;-70
2021/05/05 05:08:12;;;;;;;14.63;3.17;;;;;;;;;;5040583;28;20195;-70
2021/05/05 05:10:38;;;;;;;17.17;2.80;;;;;;;;;;5029581;28;20200;-69
2021/05/05 05:13:04;;;;;;;19.40;2.47;;;;;;;;;;5035736;28;20177;-69
2021/05/05 05:15:29;;;;;;;8.47;2.37;;;;;;;;;;5031060;28;20193;-70
2021/05/05 05:17:55;;;;;;;14.47;2.77;;;;;;;;;;5038462;28;20232;-70
2021/05/05 05:20:20;;;;;;;16.10;2.63;;;;;;;;;;5033602;28;20216;-68
2021/05/05 05:22:46;;;;;;;16.00;2.97;;;;;;;;;;5043195;28;20584;-69
2021/05/05 05:25:12;;;;;;;23.90;3.00;;;;;;;;;;5030443;28;20283;-69
2021/05/05 05:27:38;;;;;;;13.67;2.77;;;;;;;;;;5038811;28;20660;-69
2021/05/05 05:30:06;;;;;;;16.90;2.70;;;;;;;;;;5028558;28;20186;-70
2021/05/05 05:32:32;;;;;;;16.20;2.53;;;;;;;;;;5039838;28;20216;-69
2021/05/05 05:34:57;;;;;;;12.97;2.67;;;;;;;;;;5037691;28;20221;-69
2021/05/05 05:37:22;;;;;;;18.30;2.83;;;;;;;;;;5033047;28;20201;-69
2021/05/05 05:39:48;;;;;;;16.27;2.83;;;;;;;;;;5044478;28;20198;-69
2021/05/05 05:42:13;;;;;;;11.00;3.07;;;;;;;;;;5031626;28;20842;-69
2021/05/05 05:44:39;;;;;;;18.30;4.47;;;;;;;;;;5040779;28;20200;-69
2021/05/05 05:47:04;;;;;;;19.47;2.97;;;;;;;;;;5032407;28;20190;-69
2021/05/05 05:49:29;;;;;;;13.13;2.70;;;;;;;;;;5039161;28;20196;-68
2021/05/05 05:51:55;;;;;;;24.33;3.23;;;;;;;;;;5027139;28;20301;-68
2021/05/05 05:54:20;;;;;;;17.37;3.03;;;;;;;;;;5035852;28;20645;-69
2021/05/05 05:56:45;;;;;;;11.93;2.33;;;;;;;;;;5034881;28;20735;-70
2021/05/05 05:59:11;;;;;;;12.03;2.33;;;;;;;;;;5039587;28;20221;-69
2021/05/05 06:01:36;;;;;;;16.97;2.90;;;;;;;;;;5032558;28;20244;-69
2021/05/05 06:04:02;;;;;;;17.73;2.70;;;;;;;;;;5036180;28;20233;-68
2021/05/05 06:06:27;;;;;;;15.63;3.17;;;;;;;;;;5039170;28;20189;-69
2021/05/05 06:08:52;;;;;;;14.00;3.07;;;;;;;;;;5032088;28;20268;-69
2021/05/05 06:11:17;;;;;;;20.40;2.70;;;;;;;;;;5039014;28;20520;-68
2021/05/05 06:13:43;;;;;;;17.80;3.33;;;;;;;;;;5030565;28;20193;-69
2021/05/05 06:16:08;;;;;;;15.83;2.30;;;;;;;;;;5040165;28;20193;-69
2021/05/05 06:18:34;;;;;;;19.40;2.90;;;;;;;;;;5035701;28;20185;-69
2021/05/05 06:21:00;;;;;;;12.03;2.43;;;;;;;;;;5041570;28;20609;-70
2021/05/05 06:23:25;;;;;;;10.73;3.07;;;;;;;;;;5029985;28;20178;-70
2021/05/05 06:25:51;;;;;;;15.90;2.30;;;;;;;;;;5042788;28;20220;-70
2021/05/05 06:28:16;;;;;;;14.70;2.70;;;;;;;;;;5038553;28;20177;-70
2021/05/05 06:30:42;;;;;;;15.67;2.90;;;;;;;;;;5041970;28;20182;-70
2021/05/05 06:33:07;;;;;;;15.57;2.93;;;;;;;;;;5031181;28;20182;-70
2021/05/05 06:35:32;;;;;;;12.70;2.33;;;;;;;;;;5038051;28;20210;-70
2021/05/05 06:37:58;;;;;;;11.93;2.67;;;;;;;;;;5033282;28;20646;-70
2021/05/05 06:40:24;;;;;;;16.47;2.63;;;;;;;;;;5032006;28;20234;-70
2021/05/05 06:42:49;;;;;;;18.73;2.40;;;;;;;;;;5032784;28;20205;-69
2021/05/05 06:45:15;;;;;;;13.87;2.33;;;;;;;;;;5030432;28;20196;-69
2021/05/05 06:47:40;;;;;;;14.37;2.47;;;;;;;;;;5046054;28;20189;-69
2021/05/05 06:50:08;;;;;;;12.67;2.70;;;;;;;;;;5031928;28;20182;-69
2021/05/05 06:52:34;;;;;;;11.63;2.30;;;;;;;;;;5036938;28;20181;-69
2021/05/05 06:54:59;;;;;;;11.80;1.97;;;;;;;;;;5026986;28;20197;-69
2021/05/05 06:57:25;;;;;;;17.27;2.93;;;;;;;;;;5036871;28;20213;-69
2021/05/05 06:59:50;;;;;;;12.18;1.90;;;;;;;;;;5028097;28;20254;-70
2021/05/05 07:02:16;;;;;;;14.40;2.43;;;;;;;;;;5032996;28;20209;-70
2021/05/05 07:04:41;;;;;;;9.70;2.20;;;;;;;;;;4333428;28;10000826;-69
2021/05/05 07:07:06;;;;;;;14.90;2.22;;;;;;;;;;5024508;28;20424;-70
2021/05/05 07:09:32;;;;;;;12.87;2.23;;;;;;;;;;5032823;28;20201;-68
2021/05/05 07:11:57;;;;;;;10.68;2.00;;;;;;;;;;5025537;28;20645;-68
2021/05/05 07:14:22;;;;;;;12.18;2.03;;;;;;;;;;5034635;28;20838;-68
2021/05/05 07:16:48;;;;;;;21.10;2.85;;;;;;;;;;5020324;28;20190;-68
2021/05/05 07:19:13;;;;;;;6.63;1.88;;;;;;;;;;5026862;28;20267;-68
2021/05/05 07:21:39;;;;;;;11.57;2.55;;;;;;;;;;5024442;28;20201;-69
2021/05/05 07:24:05;;;;;;;8.57;1.67;;;;;;;;;;5037268;28;21308;-69
2021/05/05 07:26:30;;;;;;;11.77;1.77;;;;;;;;;;5032776;28;20184;-69
2021/05/05 07:28:56;;;;;;;14.35;2.40;;;;;;;;;;5042804;28;20212;-68
2021/05/05 07:31:22;;;;;;;9.30;1.75;;;;;;;;;;5032789;28;20184;-69
2021/05/05 07:33:50;;;;;;;13.43;1.85;;;;;;;;;;5033450;28;20273;-69
2021/05/05 07:36:19;;;;;;;11.80;2.05;;;;;;;;;;5032918;28;20212;-71
2021/05/05 07:42:10;;;;;;;8.73;1.98;;;;;;;;;;5027959;28;20794;-68
2021/05/05 07:49:20;;;;;;;12.77;1.55;;;;;;;;;;5036119;28;20201;-69
2021/05/05 07:51:45;;;;;;;9.25;1.52;;;;;;;;;;5031201;28;20174;-68
2021/05/05 07:54:12;;;;;;;9.05;1.20;;;;;;;;;;5037301;28;20204;-68
2021/05/05 07:56:38;;;;;;;9.50;1.20;;;;;;;;;;5034085;28;20189;-68
2021/05/05 07:59:04;;;;;;;8.13;1.17;;;;;;;;;;5025120;28;20247;-68
2021/05/05 08:01:31;;;;;;;9.85;1.40;;;;;;;;;;5030998;28;20205;-68
2021/05/05 08:03:57;;;;;;;8.82;1.48;;;;;;;;;;5022875;28;20650;-68
2021/05/05 08:06:23;;;;;;;6.15;1.77;;;;;;;;;;5032124;28;20553;-68
2021/05/05 08:08:49;;;;;;;7.25;1.10;;;;;;;;;;5033094;28;20186;-68
2021/05/05 08:11:15;;;;;;;5.65;1.40;;;;;;;;;;5032406;28;20176;-67
2021/05/05 08:13:41;;;;;;;9.27;1.35;;;;;;;;;;5025851;28;20193;-69
2021/05/05 08:16:06;;;;;;;10.05;2.25;;;;;;;;;;5034047;28;20184;-67
2021/05/05 08:18:32;;;;;;;7.75;1.50;;;;;;;;;;5026892;28;20185;-68
2021/05/05 08:21:01;;;;;;;8.15;2.30;;;;;;;;;;5031152;28;20189;-68
2021/05/05 08:23:26;;;;;;;8.88;1.30;;;;;;;;;;5032415;28;20193;-67
2021/05/05 08:25:51;;;;;;;11.35;1.42;;;;;;;;;;5026674;28;20185;-68
2021/05/05 08:28:17;;;;;;;8.70;1.50;;;;;;;;;;5044392;28;20185;-68
2021/05/05 08:30:42;;;;;;;6.70;1.20;;;;;;;;;;5029334;28;20186;-68
2021/05/05 08:33:08;;;;;;;10.40;1.38;;;;;;;;;;5037429;28;20662;-68
2021/05/05 08:35:34;;;;;;;8.60;1.75;;;;;;;;;;5027261;28;20198;-68
2021/05/05 08:37:59;;;;;;;11.30;1.73;;;;;;;;;;5033816;28;20185;-69
2021/05/05 08:40:24;;;;;;;13.38;1.85;;;;;;;;;;5027484;28;20307;-69
2021/05/05 08:42:51;;;;;;;8.70;1.65;;;;;;;;;;5031789;28;20661;-68
2021/05/05 08:45:21;;;;;;;5.03;1.10;;;;;;;;;;5029049;28;20335;-68
2021/05/05 08:47:48;;;;;;;4.45;0.82;;;;;;;;;;5035329;28;20181;-68
2021/05/05 08:50:16;;;;;;;4.30;1.17;;;;;;;;;;5024450;28;20734;-69
2021/05/05 08:52:42;;;;;;;7.23;1.07;;;;;;;;;;5033865;28;20832;-69
2021/05/05 08:55:10;;;;;;;7.25;1.25;;;;;;;;;;5032040;28;20181;-69
2021/05/05 08:57:35;;;;;;;8.73;1.40;;;;;;;;;;5027297;28;20189;-69
2021/05/05 09:00:09;;;;;;;11.32;1.77;;;;;;;;;;5036990;28;20186;-69
2021/05/05 09:02:35;;;;;;;10.77;1.58;;;;;;;;;;5030789;28;20251;-69
2021/05/05 09:05:08;;;;;;;9.80;1.40;;;;;;;;;;5036915;28;20217;-70
2021/05/05 09:07:35;;;;;;;7.45;1.48;;;;;;;;;;5027869;28;20575;-69
2021/05/05 09:10:09;;;;;;;6.47;1.20;;;;;;;;;;5033955;28;20699;-70
2021/05/05 09:12:40;;;;;;;6.15;1.42;;;;;;;;;;5032582;28;20672;-69
2021/05/05 09:15:05;;;;;;;4.73;1.00;;;;;;;;;;5038537;28;20196;-70
2021/05/05 09:17:32;;;;;;;11.13;1.57;;;;;;;;;;5026565;28;20194;-70
2021/05/05 09:20:12;;;;;;;5.90;1.53;;;;;;;;;;5039416;28;20197;-70
2021/05/05 09:22:56;;;;;;;14.10;2.47;;;;;;;;;;5025718;28;20200;-71
2021/05/05 09:25:23;;;;;;;8.80;1.80;;;;;;;;;;5037597;28;20607;-71
2021/05/05 09:28:09;;;;;;;9.67;2.00;;;;;;;;;;5025712;28;20220;-72
2021/05/05 09:30:35;;;;;;;11.10;1.93;;;;;;;;;;5037176;28;20595;-70
2021/05/05 09:33:01;;;;;;;8.83;1.73;;;;;;;;;;5031725;28;20633;-71
2021/05/05 09:35:31;;;;;;;8.77;2.37;;;;;;;;;;5036240;28;20190;-71
2021/05/05 09:37:59;;;;;;;10.13;3.13;;;;;;;;;;5026045;28;21018;-70
2021/05/05 09:40:26;;;;;;;10.80;1.80;;;;;;;;;;5033830;28;20226;-70
2021/05/05 09:42:52;;;;;;;8.32;1.70;;;;;;;;;;5030587;28;20268;-70
2021/05/05 09:45:17;;;;;;;7.97;1.55;;;;;;;;;;5041872;28;20210;-70
2021/05/05 09:47:54;;;;;;;12.45;1.58;;;;;;;;;;5039684;28;20438;-70
2021/05/05 09:50:38;;;;;;;6.57;1.30;;;;;;;;;;5032575;28;21030;-70
2021/05/05 09:53:24;;;;;;;8.38;1.55;;;;;;;;;;5044479;28;20198;-71
2021/05/05 09:55:58;;;;;;;7.78;1.30;;;;;;;;;;5040696;28;20246;-69
2021/05/05 09:58:30;;;;;;;12.45;1.75;;;;;;;;;;5038713;28;20943;-68
2021/05/05 10:01:10;;;;;;;7.78;1.52;;;;;;;;;;5041198;28;20189;-68
2021/05/05 10:03:42;;;;;;;8.02;1.48;;;;;;;;;;5050723;28;20217;-70
2021/05/05 10:06:16;;;;;;;13.10;1.83;;;;;;;;;;5033537;28;21005;-69
2021/05/05 10:08:41;;;;;;;7.43;1.77;;;;;;;;;;5040263;28;20284;-69
2021/05/05 10:11:07;;;;;;;11.48;1.58;;;;;;;;;;5031648;28;20185;-69
2021/05/05 10:13:32;;;;;;;11.35;2.25;;;;;;;;;;5045483;28;20709;-70
2021/05/05 10:15:58;;;;;;;11.13;1.58;;;;;;;;;;5024249;28;20190;-70
2021/05/05 10:18:23;;;;;;;7.53;1.30;;;;;;;;;;5041982;28;20193;-70
2021/05/05 10:20:50;;;;;;;4.97;1.15;;;;;;;;;;5026589;28;20589;-70
2021/05/05 10:23:17;;;;;;;4.05;0.80;;;;;;;;;;5038888;28;20185;-69
2021/05/05 10:25:45;;;;;;;7.55;1.50;;;;;;;;;;5030678;28;20600;-68
2021/05/05 10:28:11;;;;;;;5.75;1.30;;;;;;;;;;5039718;28;20189;-69
2021/05/05 10:30:41;;;;;;;6.10;1.27;;;;;;;;;;5031996;28;20284;-68
2021/05/05 10:33:12;;;;;;;5.70;1.00;;;;;;;;;;5040968;28;20193;-69
2021/05/05 10:35:38;;;;;;;7.90;1.20;;;;;;;;;;5032224;28;20197;-69
2021/05/05 10:38:03;;;;;;;7.47;1.40;;;;;;;;;;5046063;28;20193;-69
2021/05/05 10:40:33;;;;;;;7.00;1.27;;;;;;;;;;5029111;28;20213;-69
2021/05/05 10:43:00;;;;;;;9.47;1.40;;;;;;;;;;5044884;28;20182;-69
2021/05/05 10:45:40;;;;;;;8.50;1.47;;;;;;;;;;5035782;28;20324;-69
2021/05/05 10:48:08;;;;;;;8.17;1.23;;;;;;;;;;5047623;28;20189;-69
2021/05/05 10:50:49;;;;;;;9.43;1.43;;;;;;;;;;5039617;28;20276;-69
2021/05/05 10:53:16;;;;;;;12.30;1.93;;;;;;;;;;5036935;28;20657;-69
2021/05/05 10:55:44;;;;;;;7.60;1.40;;;;;;;;;;5046698;28;20184;-69
2021/05/05 10:58:11;;;;;;;9.30;1.70;;;;;;;;;;5040172;28;20185;-69
2021/05/05 11:00:48;;;;;;;12.80;2.43;;;;;;;;;;5040118;28;20247;-69
2021/05/05 11:03:34;;;;;;;10.27;2.00;;;;;;;;;;5032736;28;20208;-69
2021/05/05 11:06:00;;;;;;;9.30;1.90;;;;;;;;;;5047566;28;20675;-70
2021/05/05 11:08:27;;;;;;;11.83;2.27;;;;;;;;;;5036369;28;20187;-69
2021/05/05 11:10:54;;;;;;;12.10;2.33;;;;;;;;;;5041928;28;20204;-69
2021/05/05 11:13:23;;;;;;;13.13;1.90;;;;;;;;;;5037681;28;20229;-70
2021/05/05 11:15:48;;;;;;;12.03;2.40;;;;;;;;;;5041521;28;20988;-69
2021/05/05 11:18:29;;;;;;;10.63;2.43;;;;;;;;;;5034272;28;20197;-69
2021/05/05 11:20:56;;;;;;;11.90;2.53;;;;;;;;;;5039444;28;20305;-69
2021/05/05 11:23:38;;;;;;;12.73;2.47;;;;;;;;;;5033785;28;20190;-69
2021/05/05 11:26:23;;;;;;;11.90;2.70;;;;;;;;;;5043957;28;20212;-69
2021/05/05 11:28:55;;;;;;;12.15;2.47;;;;;;;;;;5035929;28;20196;-69
2021/05/05 11:31:42;;;;;;;11.77;2.50;;;;;;;;;;5042689;28;20181;-69
2021/05/05 11:34:07;;;;;;;15.40;2.70;;;;;;;;;;5027487;28;20280;-69
2021/05/05 11:36:33;;;;;;;9.03;2.23;;;;;;;;;;5037325;28;20606;-69
2021/05/05 11:38:58;;;;;;;15.65;2.20;;;;;;;;;;5032452;28;20648;-69
2021/05/05 11:41:25;;;;;;;9.10;2.20;;;;;;;;;;5036160;28;20325;-68
2021/05/05 11:43:51;;;;;;;10.88;2.55;;;;;;;;;;5032058;28;20272;-69
2021/05/05 11:46:20;;;;;;;10.57;1.90;;;;;;;;;;5045603;28;20272;-69
2021/05/05 11:48:46;;;;;;;9.70;1.70;;;;;;;;;;5033003;28;20200;-69
2021/05/05 11:51:19;;;;;;;11.93;2.25;;;;;;;;;;5037459;28;20197;-68
2021/05/05 11:53:44;;;;;;;12.25;1.80;;;;;;;;;;5036931;28;20196;-68
2021/05/05 11:56:25;;;;;;;12.77;2.35;;;;;;;;;;5027925;28;20185;-68
2021/05/05 11:59:01;;;;;;;12.05;2.38;;;;;;;;;;5039796;28;20557;-68
2021/05/05 12:01:32;;;;;;;8.27;1.77;;;;;;;;;;5034037;28;20208;-68
2021/05/05 12:04:19;;;;;;;8.05;1.60;;;;;;;;;;5042622;28;20206;-68
2021/05/05 12:06:56;;;;;;;8.95;1.90;;;;;;;;;;5025176;28;20197;-68
2021/05/05 12:09:27;;;;;;;13.50;2.28;;;;;;;;;;5034577;28;20189;-68
2021/05/05 12:12:11;;;;;;;10.60;1.90;;;;;;;;;;5027335;28;20580;-68
2021/05/05 12:14:36;;;;;;;9.60;1.70;;;;;;;;;;5035490;28;20189;-68
2021/05/05 12:19:53;;;;;;;9.98;2.15;;;;;;;;;;5034121;28;20637;-68
2021/05/05 12:22:19;;;;;;;11.63;1.85;;;;;;;;;;5029395;28;20212;-68
2021/05/05 12:25:15;;;;;;;17.63;2.33;;;;;;;;;;5037568;28;20189;-68
2021/05/05 12:28:00;;;;;;;10.18;2.08;;;;;;;;;;5029727;28;20585;-68
2021/05/05 12:30:35;;;;;;;14.10;3.13;;;;;;;;;;5035992;28;20629;-68
2021/05/05 12:33:00;;;;;;;10.05;2.78;;;;;;;;;;5028265;28;20184;-71
2021/05/05 12:35:26;;;;;;;16.52;2.78;;;;;;;;;;5040049;28;20230;-69
2021/05/05 12:37:54;;;;;;;18.85;3.22;;;;;;;;;;5031891;28;20197;-69
2021/05/05 12:40:24;;;;;;;17.50;3.13;;;;;;;;;;5036497;28;20226;-69
2021/05/05 12:42:50;;;;;;;14.95;3.40;;;;;;;;;;5031321;28;20189;-68
2021/05/05 12:45:17;;;;;;;14.88;2.92;;;;;;;;;;5033730;28;20184;-69
2021/05/05 12:47:43;;;;;;;17.77;3.47;;;;;;;;;;5030521;28;20193;-68
2021/05/05 12:50:14;;;;;;;16.25;2.95;;;;;;;;;;5033808;28;20182;-67
2021/05/05 12:52:41;;;;;;;16.92;2.80;;;;;;;;;;5026503;28;20181;-68
2021/05/05 12:55:22;;;;;;;16.90;2.72;;;;;;;;;;5038111;28;20178;-68
2021/05/05 12:58:05;;;;;;;18.80;3.00;;;;;;;;;;5032664;28;20196;-68
2021/05/05 13:00:32;;;;;;;14.27;2.38;;;;;;;;;;5040304;28;20198;-67
2021/05/05 13:03:06;;;;;;;13.10;2.22;;;;;;;;;;5032593;28;20219;-67
2021/05/05 13:05:32;;;;;;;11.43;2.30;;;;;;;;;;5037514;28;20599;-66
2021/05/05 13:08:10;;;;;;;12.40;2.33;;;;;;;;;;5029392;28;20648;-67
2021/05/05 13:10:45;;;;;;;12.27;2.25;;;;;;;;;;5035573;28;20185;-67
2021/05/05 13:13:14;;;;;;;14.50;2.38;;;;;;;;;;5024875;28;20188;-67
2021/05/05 13:30:58;;;;;;;13.30;2.03;;;;;;;;;;5030096;28;20208;-67
2021/05/05 13:33:10;;;;;;;12.20;1.85;;;;;;;;;;5044409;28;20209;-67
2021/05/05 13:35:50;;;;;;;7.70;1.73;;;;;;;;;;5037614;28;20185;-66
2021/05/05 13:38:29;;;;;;;10.65;2.17;;;;;;;;;;5039192;28;20193;-67
2021/05/05 13:40:59;;;;;;;7.90;1.60;;;;;;;;;;5033110;28;20232;-67
2021/05/05 13:43:37;;;;;;;5.00;1.33;;;;;;;;;;5043107;28;20193;-67
2021/05/05 13:46:18;;;;;;;12.63;1.80;;;;;;;;;;5027068;28;20190;-67
2021/05/05 13:48:47;;;;;;;14.27;1.75;;;;;;;;;;5040507;28;20216;-67
2021/05/05 13:51:16;;;;;;;10.77;1.52;;;;;;;;;;5028968;28;20197;-66
2021/05/05 13:53:46;;;;;;;3.00;1.20;;;;;;;;;;5038007;28;20216;-66
2021/05/05 13:56:16;;;;;;;17.88;3.85;;;;;;;;;;5030898;28;20193;-68
2021/05/05 13:58:43;;;;;;;10.93;1.85;;;;;;;;;;5039806;28;20255;-66
2021/05/05 14:01:09;;;;;;;6.90;1.70;;;;;;;;;;5031647;28;20669;-67
2021/05/05 14:03:34;;;;;;;9.85;1.80;;;;;;;;;;5045048;28;20295;-67
2021/05/05 14:06:00;;;;;;;14.93;2.38;;;;;;;;;;5032153;28;20273;-67
2021/05/05 14:08:26;;;;;;;12.57;2.17;;;;;;;;;;5043242;28;20642;-66
2021/05/05 14:10:52;;;;;;;9.30;1.95;;;;;;;;;;5046573;28;20289;-67
2021/05/05 14:13:18;;;;;;;12.05;2.17;;;;;;;;;;5030037;28;20269;-67
2021/05/05 14:15:44;;;;;;;8.80;2.33;;;;;;;;;;5036555;28;20177;-67
2021/05/05 14:18:10;;;;;;;9.77;2.33;;;;;;;;;;5031497;28;20603;-67
2021/05/05 14:20:36;;;;;;;14.30;2.35;;;;;;;;;;5037872;28;20190;-67
2021/05/05 14:23:03;;;;;;;13.35;2.40;;;;;;;;;;5027671;28;20189;-67
2021/05/05 14:25:28;;;;;;;9.43;2.58;;;;;;;;;;5039903;28;20178;-67
2021/05/05 14:27:54;;;;;;;15.30;2.80;;;;;;;;;;5028459;28;20259;-67
2021/05/05 14:30:21;;;;;;;15.73;3.63;;;;;;;;;;5036882;28;20264;-67
2021/05/05 14:32:47;;;;;;;15.82;2.45;;;;;;;;;;5026235;28;20188;-67
2021/05/05 14:35:14;;;;;;;12.13;3.05;;;;;;;;;;5038466;28;20185;-68
2021/05/05 14:37:40;;;;;;;12.40;2.20;;;;;;;;;;5031651;28;20239;-67
2021/05/05 14:40:07;;;;;;;21.77;2.42;;;;;;;;;;5035518;28;20224;-67
2021/05/05 14:42:37;;;;;;;13.35;2.78;;;;;;;;;;5036533;28;20209;-66
2021/05/05 14:45:25;;;;;;;14.57;2.40;;;;;;;;;;5034017;28;20591;-67
2021/05/05 14:48:07;;;;;;;7.85;2.55;;;;;;;;;;5033292;28;20193;-67
2021/05/05 14:50:35;;;;;;;12.40;2.05;;;;;;;;;;5032647;28;21731;-67
2021/05/05 14:53:00;;;;;;;12.88;2.50;;;;;;;;;;5033461;28;20190;-67
2021/05/05 14:55:26;;;;;;;8.77;2.05;;;;;;;;;;5021404;28;20673;-67
2021/05/05 14:58:06;;;;;;;13.88;2.22;;;;;;;;;;5038224;28;20286;-67
2021/05/05 15:00:33;;;;;;;9.30;2.00;;;;;;;;;;5024563;28;20272;-67
2021/05/05 15:02:59;;;;;;;11.32;2.30;;;;;;;;;;5040177;28;20211;-67